Darlington, New Jersey
Current Conditions -  °F | °C
As of 6:51 PM on Monday 20 Oct 2014 (Local Time) from KTEB Reporting Station
Clear Clear  
Wind Chill: 56°   Ceiling: Unl
Heat Index: 56°   Visibility: 10mi
Dew Point: 38°   Wind: 5mph
Humidity: 51%   Direction: 190°S
Pressure: 29.96"   Gusts: NA
Location:  41.0594°N, 74.1457°W
Report Text: KTEB 202251Z 19004KT 10SM CLR 13/03 A2996 RMK AO2 SLP146 T01330033
Loading
Personal Weather Stations






























Interactive Weather Map
Tropical Storm Tracking
New forecast layout! Learn more

10-Day Weather Forecast

Advertisements
Track Severe Weather on mobile